createdAt,value
2022-11-08T00:00:02.573Z,5.40
2022-11-08T00:00:43.996Z,5.40
2022-11-08T00:01:25.679Z,5.40
2022-11-08T00:01:48.542Z,5.40
2022-11-08T00:02:13.859Z,5.40
2022-11-08T00:02:39.157Z,5.40
2022-11-08T00:03:02.135Z,5.40
2022-11-08T00:03:25.043Z,5.40
2022-11-08T00:03:47.712Z,5.40
2022-11-08T00:04:12.826Z,5.40
2022-11-08T00:04:35.536Z,5.40
2022-11-08T00:05:08.584Z,5.40
2022-11-08T00:05:52.347Z,5.40
2022-11-08T00:06:33.449Z,5.40
2022-11-08T00:07:17.263Z,5.40
2022-11-08T00:07:58.892Z,5.40
2022-11-08T00:08:40.196Z,5.40
2022-11-08T00:09:21.668Z,5.40
2022-11-08T00:10:03.286Z,5.40
2022-11-08T00:10:44.817Z,5.40
2022-11-08T00:11:25.752Z,5.40
2022-11-08T00:12:08.604Z,5.40
2022-11-08T00:12:50.081Z,5.30
2022-11-08T00:13:31.617Z,5.30
2022-11-08T00:13:57.534Z,5.30
2022-11-08T00:14:23.726Z,5.30
2022-11-08T00:14:47.225Z,5.30
2022-11-08T00:15:10.707Z,5.30
2022-11-08T00:15:39.048Z,5.30
2022-11-08T00:16:02.166Z,5.30
2022-11-08T00:16:25.352Z,5.30
2022-11-08T00:16:48.172Z,5.40
2022-11-08T00:17:10.861Z,5.40
2022-11-08T00:17:33.545Z,5.40
2022-11-08T00:17:56.907Z,5.50
2022-11-08T00:18:20.019Z,5.50
2022-11-08T00:18:43.101Z,5.50
2022-11-08T00:19:05.834Z,5.50
2022-11-08T00:19:28.506Z,5.50
2022-11-08T00:19:54.036Z,5.40
2022-11-08T00:20:19.870Z,5.50
2022-11-08T00:20:45.103Z,5.40
2022-11-08T00:21:08.003Z,5.40
2022-11-08T00:21:30.706Z,5.40
2022-11-08T00:21:53.342Z,5.40
2022-11-08T00:22:16.013Z,5.40
2022-11-08T00:22:38.695Z,5.40
2022-11-08T00:23:01.670Z,5.30
2022-11-08T00:23:24.396Z,5.30
2022-11-08T00:23:49.312Z,5.30
2022-11-08T00:24:12.155Z,5.30
2022-11-08T00:24:37.656Z,5.30
2022-11-08T00:25:00.379Z,5.20
2022-11-08T00:25:23.051Z,5.20
2022-11-08T00:25:46.767Z,5.20
2022-11-08T00:26:09.492Z,5.20
2022-11-08T00:26:32.275Z,5.20
2022-11-08T00:26:56.659Z,5.20
2022-11-08T00:27:20.346Z,5.20
2022-11-08T00:27:43.052Z,5.10
2022-11-08T00:28:05.935Z,5.10
2022-11-08T00:28:28.701Z,5.10
2022-11-08T00:28:51.410Z,5.10
2022-11-08T00:29:14.411Z,5.10
2022-11-08T00:29:37.266Z,5.10
2022-11-08T00:29:59.977Z,5.10
2022-11-08T00:30:22.740Z,5.10
2022-11-08T00:30:45.455Z,5.10
2022-11-08T00:31:08.320Z,5.20
2022-11-08T00:31:31.096Z,5.10
2022-11-08T00:31:53.791Z,5.10
2022-11-08T00:32:17.761Z,5.10
2022-11-08T00:32:40.484Z,5.10
2022-11-08T00:33:03.236Z,5.10
2022-11-08T00:33:25.931Z,5.10
2022-11-08T00:33:48.649Z,5.10
2022-11-08T00:34:11.400Z,5.10
2022-11-08T00:34:34.109Z,5.10
2022-11-08T00:34:56.850Z,5.10
2022-11-08T00:35:19.915Z,5.10
2022-11-08T00:35:42.573Z,5.10
2022-11-08T00:36:06.255Z,5.10
2022-11-08T00:36:28.910Z,5.10
2022-11-08T00:36:53.291Z,5.10
2022-11-08T00:37:16.052Z,5.00
2022-11-08T00:37:38.765Z,5.00
2022-11-08T00:38:01.469Z,5.00
2022-11-08T00:38:24.330Z,5.00
2022-11-08T00:38:47.103Z,5.00
2022-11-08T00:39:11.212Z,5.10
2022-11-08T00:39:33.996Z,5.10
2022-11-08T00:39:56.830Z,5.10
2022-11-08T00:40:19.570Z,5.10
2022-11-08T00:40:42.361Z,5.10
2022-11-08T00:41:05.349Z,5.10
2022-11-08T00:41:28.066Z,5.10
2022-11-08T00:41:50.841Z,5.10
2022-11-08T00:42:15.176Z,5.20
2022-11-08T00:42:37.955Z,5.20
2022-11-08T00:43:00.675Z,5.20
2022-11-08T00:43:23.421Z,5.20
2022-11-08T00:43:47.279Z,5.20
2022-11-08T00:44:09.976Z,5.20
2022-11-08T00:44:32.777Z,5.20
2022-11-08T00:44:55.551Z,5.20
2022-11-08T00:45:18.246Z,5.10
2022-11-08T00:45:40.961Z,5.10
2022-11-08T00:46:03.671Z,5.10
2022-11-08T00:46:26.485Z,5.10
2022-11-08T00:46:49.257Z,5.10
2022-11-08T00:47:11.991Z,5.10
2022-11-08T00:47:34.800Z,5.10
2022-11-08T00:47:57.619Z,5.10
2022-11-08T00:48:20.679Z,5.10
2022-11-08T00:48:43.999Z,5.10
2022-11-08T00:49:06.910Z,5.10
2022-11-08T00:49:29.757Z,5.10
2022-11-08T00:49:54.667Z,5.10
2022-11-08T00:50:17.407Z,5.10
2022-11-08T00:50:40.181Z,5.00
2022-11-08T00:51:03.202Z,5.00
2022-11-08T00:51:26.002Z,5.00
2022-11-08T00:51:48.722Z,5.00
2022-11-08T00:52:11.449Z,4.90
2022-11-08T00:52:36.546Z,5.00
2022-11-08T00:52:59.271Z,4.90
2022-11-08T00:53:22.006Z,4.90
2022-11-08T00:53:44.775Z,4.90
2022-11-08T00:54:07.662Z,4.90
2022-11-08T00:54:30.390Z,4.90
2022-11-08T00:54:53.127Z,4.90
2022-11-08T00:55:15.942Z,4.90
2022-11-08T00:55:38.722Z,4.90
2022-11-08T00:56:01.654Z,4.90
2022-11-08T00:56:24.371Z,4.80
2022-11-08T00:56:47.233Z,4.80
2022-11-08T00:57:09.927Z,4.90
2022-11-08T00:57:53.561Z,4.90
2022-11-08T00:58:17.167Z,4.80
2022-11-08T00:58:41.683Z,4.80
2022-11-08T00:59:04.401Z,4.80
2022-11-08T00:59:27.211Z,4.80
2022-11-08T00:59:52.322Z,4.80
2022-11-08T01:00:15.762Z,4.80
2022-11-08T01:00:38.505Z,4.80
2022-11-08T01:01:01.394Z,4.80
2022-11-08T01:01:24.396Z,4.80
2022-11-08T01:01:47.826Z,4.80
2022-11-08T01:02:11.146Z,4.80
2022-11-08T01:02:33.984Z,4.70
2022-11-08T01:03:15.365Z,4.70
2022-11-08T01:03:38.140Z,4.80
2022-11-08T01:04:00.790Z,4.80
2022-11-08T01:04:23.491Z,4.80
2022-11-08T01:04:46.274Z,4.70
2022-11-08T01:05:09.563Z,4.80
2022-11-08T01:05:32.311Z,4.80
2022-11-08T01:05:55.182Z,4.80
2022-11-08T01:06:19.007Z,4.80
2022-11-08T01:06:41.782Z,4.90
2022-11-08T01:07:04.475Z,4.80
2022-11-08T01:07:27.187Z,4.80
2022-11-08T01:07:49.895Z,4.90
2022-11-08T01:08:15.135Z,4.80
2022-11-08T01:08:38.297Z,4.80
2022-11-08T01:09:00.947Z,4.80
2022-11-08T01:09:23.708Z,4.80
2022-11-08T01:09:46.686Z,4.80
2022-11-08T01:10:10.472Z,4.80
2022-11-08T01:10:33.356Z,4.80
2022-11-08T01:10:56.170Z,4.80
2022-11-08T01:11:23.376Z,4.70
2022-11-08T01:11:48.053Z,4.90
2022-11-08T01:12:10.966Z,4.80
2022-11-08T01:12:35.225Z,4.80
2022-11-08T01:12:58.032Z,4.80
2022-11-08T01:13:20.742Z,4.80
2022-11-08T01:13:43.570Z,4.80
2022-11-08T01:14:06.269Z,4.80
2022-11-08T01:14:29.110Z,4.70
2022-11-08T01:14:55.045Z,4.70
2022-11-08T01:15:17.843Z,4.70
2022-11-08T01:15:41.512Z,4.70
2022-11-08T01:16:06.647Z,4.70
2022-11-08T01:16:31.361Z,4.70
2022-11-08T01:16:54.167Z,4.70
2022-11-08T01:17:16.951Z,4.70
2022-11-08T01:17:39.681Z,4.80
2022-11-08T01:18:02.492Z,4.70
2022-11-08T01:18:25.206Z,4.80
2022-11-08T01:18:50.309Z,4.70
2022-11-08T01:19:13.050Z,4.80
2022-11-08T01:19:35.812Z,4.80
2022-11-08T01:20:01.072Z,4.70
2022-11-08T01:20:24.201Z,4.70
2022-11-08T01:20:48.067Z,4.70
2022-11-08T01:21:10.879Z,4.70
2022-11-08T01:21:33.606Z,4.70
2022-11-08T01:21:56.676Z,4.70
2022-11-08T01:22:19.470Z,4.70
2022-11-08T01:22:43.047Z,4.70
2022-11-08T01:23:05.896Z,4.70
2022-11-08T01:23:28.711Z,4.70
2022-11-08T01:23:54.627Z,4.60
2022-11-08T01:24:17.390Z,4.60
2022-11-08T01:24:40.172Z,4.70
2022-11-08T01:25:05.372Z,4.60
2022-11-08T01:25:28.066Z,4.70
2022-11-08T01:25:50.793Z,4.60
2022-11-08T01:26:14.840Z,4.60
2022-11-08T01:26:37.658Z,4.60
2022-11-08T01:27:00.428Z,4.60
2022-11-08T01:27:23.112Z,4.60
2022-11-08T01:27:47.252Z,4.60
2022-11-08T01:28:10.151Z,4.60
2022-11-08T01:28:32.891Z,4.60
2022-11-08T01:28:55.694Z,4.60
2022-11-08T01:29:18.351Z,4.60
2022-11-08T01:29:41.021Z,4.60
2022-11-08T01:30:05.417Z,4.60
2022-11-08T01:30:28.076Z,4.60
2022-11-08T01:30:50.746Z,4.60
2022-11-08T01:31:14.573Z,4.60
2022-11-08T01:31:37.453Z,4.60
2022-11-08T01:32:00.155Z,4.60
2022-11-08T01:32:22.871Z,4.60
2022-11-08T01:32:45.697Z,4.60
2022-11-08T01:33:08.421Z,4.60
2022-11-08T01:33:31.177Z,4.60
2022-11-08T01:33:53.927Z,4.70
2022-11-08T01:34:16.635Z,4.70
2022-11-08T01:34:39.380Z,4.70
2022-11-08T01:35:02.133Z,4.70
2022-11-08T01:35:24.806Z,4.70
2022-11-08T01:35:47.606Z,4.70
2022-11-08T01:36:11.912Z,4.70
2022-11-08T01:36:34.718Z,4.70
2022-11-08T01:36:59.975Z,4.60
2022-11-08T01:37:22.712Z,4.70
2022-11-08T01:37:45.448Z,4.60
2022-11-08T01:38:08.161Z,4.60
2022-11-08T01:38:30.891Z,4.70
2022-11-08T01:38:53.912Z,4.70
2022-11-08T01:39:16.653Z,4.70
2022-11-08T01:39:39.357Z,4.60
2022-11-08T01:40:02.086Z,4.60
2022-11-08T01:40:26.993Z,4.60
2022-11-08T01:40:50.802Z,4.60
2022-11-08T01:41:13.732Z,4.60
2022-11-08T01:41:36.475Z,4.60
2022-11-08T01:42:00.271Z,4.60
2022-11-08T01:42:28.411Z,4.60
2022-11-08T01:42:52.928Z,4.50
2022-11-08T01:43:35.539Z,4.50
2022-11-08T01:43:58.346Z,4.50
2022-11-08T01:44:22.337Z,4.50
2022-11-08T01:45:03.039Z,4.50
2022-11-08T01:46:02.540Z,4.50
2022-11-08T01:46:37.329Z,4.40
2022-11-08T01:47:00.073Z,4.40
2022-11-08T01:47:22.773Z,4.40
2022-11-08T01:47:45.812Z,4.40
2022-11-08T01:48:08.526Z,4.40
2022-11-08T01:48:31.272Z,4.40
2022-11-08T01:48:56.353Z,4.30
2022-11-08T01:49:31.581Z,4.30
2022-11-08T01:49:54.467Z,4.30
2022-11-08T01:50:17.340Z,4.30
2022-11-08T01:50:40.128Z,4.30
2022-11-08T01:51:02.892Z,4.30
2022-11-08T01:51:27.201Z,4.30
2022-11-08T01:51:54.573Z,4.30
2022-11-08T01:52:28.572Z,4.30
2022-11-08T01:52:52.867Z,4.30
2022-11-08T01:53:15.683Z,4.30
2022-11-08T01:53:38.407Z,4.30
2022-11-08T01:54:01.125Z,4.40
2022-11-08T01:54:26.951Z,4.40
2022-11-08T01:54:54.126Z,4.40
2022-11-08T01:55:18.111Z,4.40
2022-11-08T01:55:40.860Z,4.40
2022-11-08T01:56:04.536Z,4.40
2022-11-08T01:56:27.354Z,4.40
2022-11-08T01:56:50.073Z,4.40
2022-11-08T01:57:15.274Z,4.50
2022-11-08T01:57:42.242Z,4.50
2022-11-08T01:58:09.286Z,4.50
2022-11-08T01:58:33.337Z,4.50
2022-11-08T01:58:56.071Z,4.50
2022-11-08T01:59:21.467Z,4.50
2022-11-08T01:59:45.146Z,4.50
2022-11-08T02:00:10.577Z,4.50
2022-11-08T02:00:33.291Z,4.40
2022-11-08T02:00:56.142Z,4.40
2022-11-08T02:01:18.928Z,4.40
2022-11-08T02:01:42.254Z,4.40
2022-11-08T02:02:05.413Z,4.40
2022-11-08T02:02:28.304Z,4.30
2022-11-08T02:02:54.727Z,4.30
2022-11-08T02:03:18.152Z,4.30
2022-11-08T02:03:41.118Z,4.30
2022-11-08T02:04:03.970Z,4.30
2022-11-08T02:04:26.781Z,4.30
2022-11-08T02:04:49.736Z,4.30
2022-11-08T02:05:26.873Z,4.30
2022-11-08T02:05:49.620Z,4.30
2022-11-08T02:06:12.322Z,4.30
2022-11-08T02:06:35.762Z,4.30
2022-11-08T02:06:58.420Z,4.30
2022-11-08T02:07:21.172Z,4.30
2022-11-08T02:07:43.907Z,4.30
2022-11-08T02:08:08.810Z,4.20
2022-11-08T02:08:34.761Z,4.30
2022-11-08T02:08:57.752Z,4.30
2022-11-08T02:09:20.478Z,4.30
2022-11-08T02:09:44.111Z,4.30
2022-11-08T02:10:08.447Z,4.30
2022-11-08T02:10:34.672Z,4.30
2022-11-08T02:10:57.437Z,4.30
2022-11-08T02:11:20.187Z,4.30
2022-11-08T02:11:42.891Z,4.30
2022-11-08T02:12:06.306Z,4.30
2022-11-08T02:12:28.982Z,4.30
2022-11-08T02:12:52.031Z,4.30
2022-11-08T02:13:19.737Z,4.30
2022-11-08T02:13:42.593Z,4.30
2022-11-08T02:14:05.482Z,4.30
2022-11-08T02:14:28.267Z,4.30
2022-11-08T02:14:51.095Z,4.30
2022-11-08T02:15:14.336Z,4.30
2022-11-08T02:15:37.467Z,4.30
2022-11-08T02:16:00.156Z,4.30
2022-11-08T02:16:22.916Z,4.30
2022-11-08T02:16:45.632Z,4.30
2022-11-08T02:17:09.691Z,4.40
2022-11-08T02:17:32.331Z,4.40
2022-11-08T02:17:55.137Z,4.40
2022-11-08T02:18:18.593Z,4.40
2022-11-08T02:18:41.911Z,4.40
2022-11-08T02:19:05.117Z,4.40
2022-11-08T02:19:31.090Z,4.50
2022-11-08T02:19:53.750Z,4.50
2022-11-08T02:20:16.641Z,4.50
2022-11-08T02:20:39.331Z,4.50
2022-11-08T02:21:06.637Z,4.40
2022-11-08T02:21:32.806Z,4.40
2022-11-08T02:21:58.808Z,4.40
2022-11-08T02:22:26.483Z,4.50
2022-11-08T02:22:52.801Z,4.40
2022-11-08T02:23:17.815Z,4.40
2022-11-08T02:23:46.062Z,4.40
2022-11-08T02:24:09.766Z,4.40
2022-11-08T02:24:32.551Z,4.40
2022-11-08T02:24:55.396Z,4.40
2022-11-08T02:25:18.189Z,4.30
2022-11-08T02:25:40.912Z,4.40
2022-11-08T02:26:03.671Z,4.30
2022-11-08T02:26:28.481Z,4.30
2022-11-08T02:26:51.846Z,4.30
2022-11-08T02:27:14.658Z,4.30
2022-11-08T02:27:37.441Z,4.30
2022-11-08T02:28:00.171Z,4.20
2022-11-08T02:28:22.961Z,4.30
2022-11-08T02:28:49.199Z,4.20
2022-11-08T02:29:29.036Z,4.20
2022-11-08T02:29:53.016Z,4.20
2022-11-08T02:30:15.837Z,4.20
2022-11-08T02:30:38.881Z,4.20
2022-11-08T02:31:01.618Z,4.20
2022-11-08T02:31:24.321Z,4.20
2022-11-08T02:31:47.045Z,4.20
2022-11-08T02:32:11.347Z,4.20
2022-11-08T02:32:40.132Z,4.20
2022-11-08T02:33:14.781Z,4.10
2022-11-08T02:33:37.495Z,4.20
2022-11-08T02:34:00.228Z,4.10
2022-11-08T02:34:25.271Z,4.10
2022-11-08T02:34:49.192Z,4.10
2022-11-08T02:35:13.286Z,4.10
2022-11-08T02:35:36.336Z,4.10
2022-11-08T02:35:59.058Z,4.10
2022-11-08T02:36:22.797Z,4.10
2022-11-08T02:36:47.042Z,4.10
2022-11-08T02:37:09.827Z,4.10
2022-11-08T02:37:32.431Z,4.10
2022-11-08T02:37:55.098Z,4.20
2022-11-08T02:38:18.164Z,4.10
2022-11-08T02:38:42.892Z,4.20
2022-11-08T02:39:07.095Z,4.10
2022-11-08T02:39:30.180Z,4.20
2022-11-08T02:39:52.888Z,4.20
2022-11-08T02:40:15.673Z,4.20
2022-11-08T02:40:48.561Z,4.20
2022-11-08T02:41:11.251Z,4.20
2022-11-08T02:41:34.006Z,4.20
2022-11-08T02:41:56.706Z,4.20
2022-11-08T02:42:20.424Z,4.20
2022-11-08T02:42:43.133Z,4.20
2022-11-08T02:43:05.848Z,4.30
2022-11-08T02:43:28.564Z,4.30
2022-11-08T02:43:51.340Z,4.30
2022-11-08T02:44:14.078Z,4.30
2022-11-08T02:44:36.799Z,4.30
2022-11-08T02:44:59.454Z,4.30
2022-11-08T02:45:22.189Z,4.30
2022-11-08T02:45:44.810Z,4.30
2022-11-08T02:46:07.502Z,4.30
2022-11-08T02:46:30.258Z,4.20
2022-11-08T02:46:52.917Z,4.20
2022-11-08T02:47:15.654Z,4.10
2022-11-08T02:47:38.527Z,4.10
2022-11-08T02:48:01.338Z,4.10
2022-11-08T02:48:24.125Z,4.00
2022-11-08T02:48:46.893Z,4.00
2022-11-08T02:49:12.217Z,4.00
2022-11-08T02:49:34.882Z,3.90
2022-11-08T02:49:57.599Z,3.90
2022-11-08T02:50:20.322Z,3.90
2022-11-08T02:50:44.027Z,3.90
2022-11-08T02:51:06.847Z,3.90
2022-11-08T02:51:29.578Z,3.90
2022-11-08T02:51:53.810Z,3.90
2022-11-08T02:52:16.477Z,3.90
2022-11-08T02:52:39.193Z,3.90
2022-11-08T02:53:01.923Z,3.90
2022-11-08T02:53:24.633Z,3.90
2022-11-08T02:53:47.347Z,3.90
2022-11-08T02:54:11.582Z,3.90
2022-11-08T02:54:34.313Z,3.90
2022-11-08T02:54:57.123Z,3.90
2022-11-08T02:55:19.835Z,4.00
2022-11-08T02:55:42.567Z,3.90
2022-11-08T02:56:05.654Z,4.00
2022-11-08T02:56:28.418Z,4.00
2022-11-08T02:56:51.343Z,4.00
2022-11-08T02:57:14.069Z,4.00
2022-11-08T02:57:36.787Z,4.00
2022-11-08T02:57:59.527Z,4.00
2022-11-08T02:58:22.382Z,4.00
2022-11-08T02:58:45.008Z,4.00
2022-11-08T02:59:07.677Z,4.10
2022-11-08T02:59:30.491Z,4.10
2022-11-08T02:59:53.298Z,4.10
2022-11-08T03:00:16.617Z,4.10
2022-11-08T03:00:39.264Z,4.00
2022-11-08T03:01:03.069Z,4.10
2022-11-08T03:01:25.855Z,4.10
2022-11-08T03:01:48.767Z,4.10
2022-11-08T03:02:11.903Z,4.00
2022-11-08T03:02:34.809Z,4.00
2022-11-08T03:02:58.222Z,4.00
2022-11-08T03:03:21.015Z,4.00
2022-11-08T03:03:46.826Z,4.00
2022-11-08T03:04:09.550Z,4.00
2022-11-08T03:04:32.328Z,3.90
2022-11-08T03:04:54.956Z,3.90
2022-11-08T03:05:18.311Z,3.90
2022-11-08T03:05:43.843Z,3.90
2022-11-08T03:06:06.775Z,3.80
2022-11-08T03:06:29.546Z,3.80
2022-11-08T03:06:52.334Z,3.80
2022-11-08T03:07:15.108Z,3.80
2022-11-08T03:07:37.821Z,3.80
2022-11-08T03:08:00.546Z,3.80
2022-11-08T03:08:23.208Z,3.80
2022-11-08T03:08:45.919Z,3.80
2022-11-08T03:09:08.651Z,3.80
2022-11-08T03:09:35.905Z,3.70
2022-11-08T03:09:58.555Z,3.70
2022-11-08T03:10:21.435Z,3.70
2022-11-08T03:10:44.217Z,3.60
2022-11-08T03:11:07.122Z,3.60
2022-11-08T03:11:29.855Z,3.60
2022-11-08T03:11:52.554Z,3.60
2022-11-08T03:12:15.336Z,3.60
2022-11-08T03:12:38.270Z,3.60
2022-11-08T03:13:04.525Z,3.60
2022-11-08T03:13:28.230Z,3.60
2022-11-08T03:13:50.981Z,3.60
2022-11-08T03:14:16.161Z,3.60
2022-11-08T03:14:38.905Z,3.50
2022-11-08T03:15:01.598Z,3.50
2022-11-08T03:15:26.742Z,3.50
2022-11-08T03:15:50.515Z,3.50
2022-11-08T03:16:13.281Z,3.50
2022-11-08T03:16:35.920Z,3.50
2022-11-08T03:16:58.749Z,3.50
2022-11-08T03:17:21.487Z,3.50
2022-11-08T03:17:44.800Z,3.50
2022-11-08T03:18:07.641Z,3.50
2022-11-08T03:18:30.519Z,3.50
2022-11-08T03:18:53.355Z,3.50
2022-11-08T03:19:18.588Z,3.50
2022-11-08T03:19:41.284Z,3.60
2022-11-08T03:20:04.529Z,3.60
2022-11-08T03:20:32.228Z,3.60
2022-11-08T03:20:55.403Z,3.60
2022-11-08T03:21:20.605Z,3.60
2022-11-08T03:21:43.371Z,3.60
2022-11-08T03:22:06.072Z,3.60
2022-11-08T03:22:28.816Z,3.60
2022-11-08T03:22:57.802Z,3.50
2022-11-08T03:23:20.820Z,3.50
2022-11-08T03:23:46.181Z,3.50
2022-11-08T03:24:10.441Z,3.50
2022-11-08T03:24:34.721Z,3.50
2022-11-08T03:24:57.415Z,3.50
2022-11-08T03:25:20.161Z,3.50
2022-11-08T03:25:42.932Z,3.50
2022-11-08T03:26:05.901Z,3.50
2022-11-08T03:26:28.595Z,3.50
2022-11-08T03:26:51.416Z,3.50
2022-11-08T03:27:15.387Z,3.50
2022-11-08T03:27:38.060Z,3.50
2022-11-08T03:28:02.745Z,3.50
2022-11-08T03:28:25.892Z,3.50
2022-11-08T03:28:48.818Z,3.50
2022-11-08T03:29:11.595Z,3.50
2022-11-08T03:29:34.555Z,3.40
2022-11-08T03:29:57.256Z,3.40
2022-11-08T03:30:19.970Z,3.40
2022-11-08T03:30:42.701Z,3.40
2022-11-08T03:31:05.735Z,3.40
2022-11-08T03:31:28.431Z,3.40
2022-11-08T03:31:51.197Z,3.40
2022-11-08T03:32:13.996Z,3.40
2022-11-08T03:32:39.155Z,3.40
2022-11-08T03:33:02.000Z,3.40
2022-11-08T03:33:24.771Z,3.40
2022-11-08T03:33:47.596Z,3.30
2022-11-08T03:34:10.738Z,3.30
2022-11-08T03:34:33.480Z,3.30
2022-11-08T03:34:56.211Z,3.30
2022-11-08T03:35:19.697Z,3.30
2022-11-08T03:35:43.650Z,3.30
2022-11-08T03:36:06.817Z,3.30
2022-11-08T03:36:29.557Z,3.30
2022-11-08T03:36:52.320Z,3.30
2022-11-08T03:37:15.089Z,3.30
2022-11-08T03:37:37.917Z,3.30
2022-11-08T03:38:00.622Z,3.30
2022-11-08T03:38:23.425Z,3.20
2022-11-08T03:38:46.167Z,3.20
2022-11-08T03:39:08.842Z,3.20
2022-11-08T03:39:31.625Z,3.20
2022-11-08T03:39:55.916Z,3.20
2022-11-08T03:40:19.065Z,3.20
2022-11-08T03:40:41.833Z,3.20
2022-11-08T03:41:07.318Z,3.20
2022-11-08T03:41:29.976Z,3.20
2022-11-08T03:41:52.855Z,3.20
2022-11-08T03:42:15.524Z,3.20
2022-11-08T03:42:41.448Z,3.20
2022-11-08T03:43:04.196Z,3.20
2022-11-08T03:43:27.041Z,3.20
2022-11-08T03:43:49.759Z,3.20
2022-11-08T03:44:12.536Z,3.20
2022-11-08T03:44:35.303Z,3.20
2022-11-08T03:44:58.019Z,3.20
2022-11-08T03:45:20.839Z,3.20
2022-11-08T03:45:43.601Z,3.20
2022-11-08T03:46:06.490Z,3.20
2022-11-08T03:46:32.321Z,3.20
2022-11-08T03:46:55.034Z,3.20
2022-11-08T03:47:17.775Z,3.20
2022-11-08T03:47:40.696Z,3.20
2022-11-08T03:48:03.520Z,3.20
2022-11-08T03:48:26.239Z,3.20
2022-11-08T03:48:49.029Z,3.20
2022-11-08T03:49:11.825Z,3.20
2022-11-08T03:49:34.565Z,3.20
2022-11-08T03:49:57.262Z,3.10
2022-11-08T03:50:20.000Z,3.10
2022-11-08T03:50:42.718Z,3.20
2022-11-08T03:51:05.761Z,3.10
2022-11-08T03:51:28.496Z,3.10
2022-11-08T03:51:53.428Z,3.10
2022-11-08T03:52:16.146Z,3.10
2022-11-08T03:52:42.079Z,3.10
2022-11-08T03:53:04.800Z,3.10
2022-11-08T03:53:27.524Z,3.10
2022-11-08T03:53:50.551Z,3.10
2022-11-08T03:54:13.454Z,3.10
2022-11-08T03:54:36.154Z,3.10
2022-11-08T03:55:00.449Z,3.10
2022-11-08T03:55:24.563Z,3.10
2022-11-08T03:55:47.357Z,3.10
2022-11-08T03:56:10.173Z,3.20
2022-11-08T03:56:32.836Z,3.20
2022-11-08T03:56:58.779Z,3.20
2022-11-08T03:57:21.479Z,3.20
2022-11-08T03:57:45.380Z,3.20
2022-11-08T03:58:08.153Z,3.20
2022-11-08T03:58:30.861Z,3.20
2022-11-08T03:58:53.612Z,3.20
2022-11-08T03:59:19.504Z,3.20
2022-11-08T03:59:42.229Z,3.20
2022-11-08T04:00:05.920Z,3.10
2022-11-08T04:00:29.018Z,3.10
2022-11-08T04:00:51.879Z,3.10
2022-11-08T04:01:14.827Z,3.20
2022-11-08T04:01:37.905Z,3.10
2022-11-08T04:02:03.800Z,3.10
2022-11-08T04:02:26.894Z,3.10
2022-11-08T04:02:49.819Z,3.20
2022-11-08T04:03:12.488Z,3.20
2022-11-08T04:03:37.427Z,3.20
2022-11-08T04:04:00.157Z,3.20
2022-11-08T04:04:23.158Z,3.20
2022-11-08T04:04:45.863Z,3.20
2022-11-08T04:05:09.673Z,3.20
2022-11-08T04:05:32.642Z,3.10
2022-11-08T04:05:56.660Z,3.10
2022-11-08T04:06:19.495Z,3.10
2022-11-08T04:06:42.726Z,3.10
2022-11-08T04:07:05.447Z,3.10
2022-11-08T04:07:28.861Z,3.10
2022-11-08T04:07:51.575Z,3.10
2022-11-08T04:08:14.337Z,3.10
2022-11-08T04:08:37.355Z,3.10
2022-11-08T04:09:00.069Z,3.10
2022-11-08T04:09:22.786Z,3.10
2022-11-08T04:09:45.445Z,3.10
2022-11-08T04:10:10.575Z,3.10
2022-11-08T04:10:33.302Z,3.10
2022-11-08T04:11:16.228Z,3.10
2022-11-08T04:11:57.606Z,3.10
2022-11-08T04:12:36.141Z,3.10
2022-11-08T04:13:18.214Z,3.10
2022-11-08T04:13:59.925Z,3.10
2022-11-08T04:14:41.227Z,3.10
2022-11-08T04:15:16.658Z,3.20
2022-11-08T04:15:39.359Z,3.20
2022-11-08T04:16:05.650Z,3.20
2022-11-08T04:16:28.409Z,3.20
2022-11-08T04:16:51.198Z,3.20
2022-11-08T04:17:14.044Z,3.20
2022-11-08T04:17:55.704Z,3.10
2022-11-08T04:18:36.945Z,3.20
2022-11-08T04:19:18.200Z,3.20
2022-11-08T04:19:59.812Z,3.20
2022-11-08T04:20:41.509Z,3.10
2022-11-08T04:21:19.161Z,3.10
2022-11-08T04:21:44.729Z,3.10
2022-11-08T04:22:07.749Z,3.10
2022-11-08T04:22:30.725Z,3.10
2022-11-08T04:22:53.429Z,3.10
2022-11-08T04:23:16.316Z,3.10
2022-11-08T04:23:39.041Z,3.10
2022-11-08T04:24:01.760Z,3.10
2022-11-08T04:24:24.503Z,3.10
2022-11-08T04:24:47.229Z,3.10
2022-11-08T04:25:11.481Z,3.00
2022-11-08T04:25:35.354Z,3.00
2022-11-08T04:25:59.367Z,3.00
2022-11-08T04:26:22.229Z,3.00
2022-11-08T04:26:44.959Z,2.90
2022-11-08T04:27:10.239Z,2.90
2022-11-08T04:27:32.977Z,2.90
2022-11-08T04:27:55.695Z,2.90
2022-11-08T04:28:18.694Z,2.90
2022-11-08T04:28:42.034Z,2.90
2022-11-08T04:29:04.779Z,2.90
2022-11-08T04:29:27.645Z,2.90
2022-11-08T04:29:50.459Z,2.90
2022-11-08T04:30:13.700Z,2.80
2022-11-08T04:30:36.477Z,2.80
2022-11-08T04:31:00.250Z,2.80
2022-11-08T04:31:22.952Z,2.80
2022-11-08T04:31:45.705Z,2.70
2022-11-08T04:32:08.817Z,2.70
2022-11-08T04:32:32.597Z,2.70
2022-11-08T04:32:55.332Z,2.70
2022-11-08T04:33:18.050Z,2.70
2022-11-08T04:33:40.805Z,2.70
2022-11-08T04:34:03.635Z,2.80
2022-11-08T04:34:29.129Z,2.70
2022-11-08T04:34:51.861Z,2.70
2022-11-08T04:35:14.663Z,2.70
2022-11-08T04:35:37.397Z,2.70
2022-11-08T04:36:04.064Z,2.70
2022-11-08T04:36:26.779Z,2.70
2022-11-08T04:36:49.471Z,2.70
2022-11-08T04:37:12.215Z,2.70
2022-11-08T04:37:37.439Z,2.70
2022-11-08T04:38:00.785Z,2.80
2022-11-08T04:38:23.516Z,2.80
2022-11-08T04:38:48.299Z,2.80
2022-11-08T04:39:12.059Z,2.80
2022-11-08T04:39:34.871Z,2.80
2022-11-08T04:39:57.559Z,2.80
2022-11-08T04:40:21.773Z,2.80
2022-11-08T04:40:44.548Z,2.80
2022-11-08T04:41:08.263Z,2.90
2022-11-08T04:41:31.079Z,2.80
2022-11-08T04:41:57.741Z,2.90
2022-11-08T04:42:23.603Z,2.80
2022-11-08T04:42:46.288Z,2.80
2022-11-08T04:43:09.023Z,2.80
2022-11-08T04:43:31.838Z,2.80
2022-11-08T04:43:55.904Z,2.80
2022-11-08T04:44:18.718Z,2.70
2022-11-08T04:44:41.434Z,2.70
2022-11-08T04:45:04.637Z,2.70
2022-11-08T04:45:27.349Z,2.70
2022-11-08T04:45:50.141Z,2.70
2022-11-08T04:46:13.786Z,2.70
2022-11-08T04:46:36.473Z,2.70
2022-11-08T04:46:59.291Z,2.70
2022-11-08T04:47:22.037Z,2.70
2022-11-08T04:47:48.476Z,2.80
2022-11-08T04:48:11.506Z,2.80
2022-11-08T04:48:34.341Z,2.80
2022-11-08T04:48:58.334Z,2.80
2022-11-08T04:49:23.638Z,2.80
2022-11-08T04:49:46.382Z,2.80
2022-11-08T04:50:09.877Z,2.80
2022-11-08T04:50:35.277Z,2.80
2022-11-08T04:51:02.578Z,2.80
2022-11-08T04:51:29.177Z,2.80
2022-11-08T04:51:51.948Z,2.80
2022-11-08T04:52:15.533Z,2.80
2022-11-08T04:52:38.311Z,2.80
2022-11-08T04:53:01.651Z,2.80
2022-11-08T04:53:24.357Z,2.80
2022-11-08T04:53:47.251Z,2.80
2022-11-08T04:54:11.108Z,2.80
2022-11-08T04:54:34.210Z,2.80
2022-11-08T04:54:57.353Z,2.80
2022-11-08T04:55:21.543Z,2.80
2022-11-08T04:55:44.270Z,2.70
2022-11-08T04:56:07.893Z,2.80
2022-11-08T04:56:30.883Z,2.80
2022-11-08T04:56:53.635Z,2.80
2022-11-08T04:57:16.659Z,2.80
2022-11-08T04:57:39.359Z,2.80
2022-11-08T04:58:02.204Z,2.80
2022-11-08T04:58:24.864Z,2.80
2022-11-08T04:58:48.679Z,2.80
2022-11-08T04:59:12.292Z,2.80
2022-11-08T04:59:35.274Z,2.80
2022-11-08T04:59:58.074Z,2.80
2022-11-08T05:00:20.993Z,2.80
2022-11-08T05:00:43.698Z,2.80
2022-11-08T05:01:07.933Z,2.80
2022-11-08T05:01:31.494Z,2.80
2022-11-08T05:01:54.624Z,2.80
2022-11-08T05:02:17.699Z,2.80
2022-11-08T05:02:40.666Z,2.90
2022-11-08T05:03:06.023Z,2.90
2022-11-08T05:03:29.162Z,2.90
2022-11-08T05:03:53.629Z,2.90
2022-11-08T05:04:16.528Z,3.00
2022-11-08T05:04:39.264Z,3.00
2022-11-08T05:05:04.219Z,3.00
2022-11-08T05:05:27.068Z,3.00
2022-11-08T05:05:49.913Z,3.10
2022-11-08T05:06:13.660Z,3.00
2022-11-08T05:06:36.399Z,3.00
2022-11-08T05:06:59.204Z,3.00
2022-11-08T05:07:21.914Z,3.00
2022-11-08T05:07:44.644Z,3.00
2022-11-08T05:08:07.365Z,3.00
2022-11-08T05:08:31.140Z,3.00
2022-11-08T05:08:55.004Z,3.00
2022-11-08T05:09:17.834Z,3.00
2022-11-08T05:09:40.564Z,3.00
2022-11-08T05:10:03.527Z,3.00
2022-11-08T05:10:27.764Z,3.00
2022-11-08T05:10:50.455Z,3.00
2022-11-08T05:11:14.613Z,3.00
2022-11-08T05:11:37.464Z,3.00
2022-11-08T05:12:00.228Z,3.00
2022-11-08T05:12:22.951Z,3.00
2022-11-08T05:12:45.849Z,3.00
2022-11-08T05:13:08.620Z,3.00
2022-11-08T05:13:31.411Z,3.00
2022-11-08T05:13:54.159Z,3.00
2022-11-08T05:14:16.945Z,3.00
2022-11-08T05:14:39.776Z,3.00
2022-11-08T05:15:02.578Z,3.00
2022-11-08T05:15:25.280Z,3.00
2022-11-08T05:15:47.991Z,3.00
2022-11-08T05:16:12.203Z,3.00
2022-11-08T05:16:35.093Z,3.00
2022-11-08T05:16:58.003Z,3.00
2022-11-08T05:17:20.754Z,3.00
2022-11-08T05:17:43.483Z,3.00
2022-11-08T05:18:06.273Z,3.00
2022-11-08T05:18:29.025Z,2.90
2022-11-08T05:18:51.799Z,2.90
2022-11-08T05:19:34.414Z,2.90
2022-11-08T05:20:16.909Z,2.80
2022-11-08T05:20:58.112Z,2.90
2022-11-08T05:21:40.124Z,2.90
2022-11-08T05:22:18.399Z,2.90
2022-11-08T05:22:59.689Z,2.80
2022-11-08T05:23:25.437Z,2.80
2022-11-08T05:23:49.514Z,2.90